sensor_id;sensor_type;location;lat;lon;timestamp;temperature;humidity
9466;DHT22;4771;48.726;9.006;2022-07-09T00:01:42;13.50;99.90
9466;DHT22;4771;48.726;9.006;2022-07-09T00:04:09;13.50;99.90
9466;DHT22;4771;48.726;9.006;2022-07-09T00:06:36;13.50;99.90
9466;DHT22;4771;48.726;9.006;2022-07-09T00:09:03;13.50;99.90
9466;DHT22;4771;48.726;9.006;2022-07-09T00:11:30;13.40;99.90
9466;DHT22;4771;48.726;9.006;2022-07-09T00:13:58;13.40;99.90
9466;DHT22;4771;48.726;9.006;2022-07-09T00:16:26;13.40;99.90
9466;DHT22;4771;48.726;9.006;2022-07-09T00:18:53;13.40;99.90
9466;DHT22;4771;48.726;9.006;2022-07-09T00:21:20;13.40;99.90
9466;DHT22;4771;48.726;9.006;2022-07-09T00:23:47;13.40;99.90
9466;DHT22;4771;48.726;9.006;2022-07-09T00:26:14;13.40;99.90
9466;DHT22;4771;48.726;9.006;2022-07-09T00:28:41;13.40;99.90
9466;DHT22;4771;48.726;9.006;2022-07-09T00:31:08;13.40;99.90
9466;DHT22;4771;48.726;9.006;2022-07-09T00:33:37;13.20;99.90
9466;DHT22;4771;48.726;9.006;2022-07-09T00:36:05;13.20;99.90
9466;DHT22;4771;48.726;9.006;2022-07-09T00:38:32;13.20;99.90
9466;DHT22;4771;48.726;9.006;2022-07-09T00:40:59;13.20;99.90
9466;DHT22;4771;48.726;9.006;2022-07-09T00:43:27;13.20;99.90
9466;DHT22;4771;48.726;9.006;2022-07-09T00:45:54;13.10;99.90
9466;DHT22;4771;48.726;9.006;2022-07-09T00:48:21;13.10;99.90
9466;DHT22;4771;48.726;9.006;2022-07-09T00:50:50;13.00;99.90
9466;DHT22;4771;48.726;9.006;2022-07-09T00:53:21;12.90;99.90
9466;DHT22;4771;48.726;9.006;2022-07-09T00:55:48;12.90;99.90
9466;DHT22;4771;48.726;9.006;2022-07-09T00:58:16;12.90;99.90
9466;DHT22;4771;48.726;9.006;2022-07-09T01:00:44;12.90;99.90
9466;DHT22;4771;48.726;9.006;2022-07-09T01:03:12;12.80;99.90
9466;DHT22;4771;48.726;9.006;2022-07-09T01:05:39;12.80;99.90
9466;DHT22;4771;48.726;9.006;2022-07-09T01:08:08;12.70;99.90
9466;DHT22;4771;48.726;9.006;2022-07-09T01:10:35;12.70;99.90
9466;DHT22;4771;48.726;9.006;2022-07-09T01:13:03;12.80;99.90
9466;DHT22;4771;48.726;9.006;2022-07-09T01:15:31;12.70;99.90
9466;DHT22;4771;48.726;9.006;2022-07-09T01:17:58;12.70;99.90
9466;DHT22;4771;48.726;9.006;2022-07-09T01:20:27;12.70;99.90
9466;DHT22;4771;48.726;9.006;2022-07-09T01:22:55;12.70;99.90
9466;DHT22;4771;48.726;9.006;2022-07-09T01:25:28;12.70;99.90
9466;DHT22;4771;48.726;9.006;2022-07-09T01:27:58;12.80;99.90
9466;DHT22;4771;48.726;9.006;2022-07-09T01:30:26;12.80;99.90
9466;DHT22;4771;48.726;9.006;2022-07-09T01:32:54;12.80;99.90
9466;DHT22;4771;48.726;9.006;2022-07-09T01:35:21;12.70;99.90
9466;DHT22;4771;48.726;9.006;2022-07-09T01:37:49;12.70;99.90
9466;DHT22;4771;48.726;9.006;2022-07-09T01:40:16;12.70;99.90
9466;DHT22;4771;48.726;9.006;2022-07-09T01:42:43;12.70;99.90
9466;DHT22;4771;48.726;9.006;2022-07-09T01:45:11;12.70;99.90
9466;DHT22;4771;48.726;9.006;2022-07-09T01:47:38;12.70;99.90
9466;DHT22;4771;48.726;9.006;2022-07-09T01:50:06;12.60;99.90
9466;DHT22;4771;48.726;9.006;2022-07-09T01:52:34;12.50;99.90
9466;DHT22;4771;48.726;9.006;2022-07-09T01:55:03;12.50;99.90
9466;DHT22;4771;48.726;9.006;2022-07-09T01:57:30;12.50;99.90
9466;DHT22;4771;48.726;9.006;2022-07-09T01:59:57;12.50;99.90
9466;DHT22;4771;48.726;9.006;2022-07-09T02:02:24;12.50;99.90
9466;DHT22;4771;48.726;9.006;2022-07-09T02:04:51;12.40;99.90
9466;DHT22;4771;48.726;9.006;2022-07-09T02:07:18;12.40;99.90
9466;DHT22;4771;48.726;9.006;2022-07-09T02:09:45;12.40;99.90
9466;DHT22;4771;48.726;9.006;2022-07-09T02:12:15;12.40;99.90
9466;DHT22;4771;48.726;9.006;2022-07-09T02:14:42;12.40;99.90
9466;DHT22;4771;48.726;9.006;2022-07-09T02:17:10;12.30;99.90
9466;DHT22;4771;48.726;9.006;2022-07-09T02:19:37;12.30;99.90
9466;DHT22;4771;48.726;9.006;2022-07-09T02:22:04;12.30;99.90
9466;DHT22;4771;48.726;9.006;2022-07-09T02:24:32;12.20;99.90
9466;DHT22;4771;48.726;9.006;2022-07-09T02:26:59;12.20;99.90
9466;DHT22;4771;48.726;9.006;2022-07-09T02:29:27;12.10;99.90
9466;DHT22;4771;48.726;9.006;2022-07-09T02:31:54;12.10;99.90
9466;DHT22;4771;48.726;9.006;2022-07-09T02:34:22;12.10;99.90
9466;DHT22;4771;48.726;9.006;2022-07-09T02:36:50;12.10;99.90
9466;DHT22;4771;48.726;9.006;2022-07-09T02:39:17;12.10;99.90
9466;DHT22;4771;48.726;9.006;2022-07-09T02:41:44;12.10;99.90
9466;DHT22;4771;48.726;9.006;2022-07-09T02:44:11;12.10;99.90
9466;DHT22;4771;48.726;9.006;2022-07-09T02:46:39;12.10;99.90
9466;DHT22;4771;48.726;9.006;2022-07-09T02:49:06;12.00;99.90
9466;DHT22;4771;48.726;9.006;2022-07-09T02:51:33;12.00;99.90
9466;DHT22;4771;48.726;9.006;2022-07-09T02:54:00;12.00;99.90
9466;DHT22;4771;48.726;9.006;2022-07-09T02:56:27;12.00;99.90
9466;DHT22;4771;48.726;9.006;2022-07-09T02:58:54;12.00;99.90
9466;DHT22;4771;48.726;9.006;2022-07-09T03:01:21;12.00;99.90
9466;DHT22;4771;48.726;9.006;2022-07-09T03:03:50;12.00;99.90
9466;DHT22;4771;48.726;9.006;2022-07-09T03:06:17;11.90;99.90
9466;DHT22;4771;48.726;9.006;2022-07-09T03:08:44;11.90;99.90
9466;DHT22;4771;48.726;9.006;2022-07-09T03:11:11;12.00;99.90
9466;DHT22;4771;48.726;9.006;2022-07-09T03:13:38;12.00;99.90
9466;DHT22;4771;48.726;9.006;2022-07-09T03:16:06;11.90;99.90
9466;DHT22;4771;48.726;9.006;2022-07-09T03:18:33;11.90;99.90
9466;DHT22;4771;48.726;9.006;2022-07-09T03:21:02;11.90;99.90
9466;DHT22;4771;48.726;9.006;2022-07-09T03:23:29;11.90;99.90
9466;DHT22;4771;48.726;9.006;2022-07-09T03:25:56;11.90;99.90
9466;DHT22;4771;48.726;9.006;2022-07-09T03:28:23;11.80;99.90
9466;DHT22;4771;48.726;9.006;2022-07-09T03:30:50;11.80;99.90
9466;DHT22;4771;48.726;9.006;2022-07-09T03:33:17;11.80;99.90
9466;DHT22;4771;48.726;9.006;2022-07-09T03:35:44;11.70;99.90
9466;DHT22;4771;48.726;9.006;2022-07-09T03:38:13;11.60;99.90
9466;DHT22;4771;48.726;9.006;2022-07-09T03:40:40;11.60;99.90
9466;DHT22;4771;48.726;9.006;2022-07-09T03:43:07;11.60;99.90
9466;DHT22;4771;48.726;9.006;2022-07-09T03:45:34;11.60;99.90
9466;DHT22;4771;48.726;9.006;2022-07-09T03:48:00;11.60;99.90
9466;DHT22;4771;48.726;9.006;2022-07-09T03:50:28;11.70;99.90
9466;DHT22;4771;48.726;9.006;2022-07-09T03:52:55;11.70;99.90
9466;DHT22;4771;48.726;9.006;2022-07-09T03:55:23;11.70;99.90
9466;DHT22;4771;48.726;9.006;2022-07-09T03:57:50;11.80;99.90
9466;DHT22;4771;48.726;9.006;2022-07-09T04:00:17;11.70;99.90
9466;DHT22;4771;48.726;9.006;2022-07-09T04:02:44;11.70;99.90
9466;DHT22;4771;48.726;9.006;2022-07-09T04:05:11;11.70;99.90
9466;DHT22;4771;48.726;9.006;2022-07-09T04:07:38;11.70;99.90
9466;DHT22;4771;48.726;9.006;2022-07-09T04:10:07;11.80;99.90
9466;DHT22;4771;48.726;9.006;2022-07-09T04:12:35;11.80;99.90
9466;DHT22;4771;48.726;9.006;2022-07-09T04:15:03;11.80;99.90
9466;DHT22;4771;48.726;9.006;2022-07-09T04:17:30;11.80;99.90
9466;DHT22;4771;48.726;9.006;2022-07-09T04:19:57;11.90;99.90
9466;DHT22;4771;48.726;9.006;2022-07-09T04:22:24;11.90;99.90
9466;DHT22;4771;48.726;9.006;2022-07-09T04:24:51;11.90;99.90
9466;DHT22;4771;48.726;9.006;2022-07-09T04:27:18;11.90;99.90
9466;DHT22;4771;48.726;9.006;2022-07-09T04:29:47;11.80;99.90
9466;DHT22;4771;48.726;9.006;2022-07-09T04:32:14;11.80;99.90
9466;DHT22;4771;48.726;9.006;2022-07-09T04:34:42;11.80;99.90
9466;DHT22;4771;48.726;9.006;2022-07-09T04:37:09;11.80;99.90
9466;DHT22;4771;48.726;9.006;2022-07-09T04:39:36;11.80;99.90
9466;DHT22;4771;48.726;9.006;2022-07-09T04:42:04;11.90;99.90
9466;DHT22;4771;48.726;9.006;2022-07-09T04:44:31;11.80;99.90
9466;DHT22;4771;48.726;9.006;2022-07-09T04:46:59;11.90;99.90
9466;DHT22;4771;48.726;9.006;2022-07-09T04:49:26;12.00;99.90
9466;DHT22;4771;48.726;9.006;2022-07-09T04:51:53;12.00;99.90
9466;DHT22;4771;48.726;9.006;2022-07-09T04:54:20;12.00;99.90
9466;DHT22;4771;48.726;9.006;2022-07-09T04:56:47;12.10;99.90
9466;DHT22;4771;48.726;9.006;2022-07-09T04:59:14;12.20;99.90
9466;DHT22;4771;48.726;9.006;2022-07-09T05:01:42;12.30;99.90
9466;DHT22;4771;48.726;9.006;2022-07-09T05:04:10;12.40;99.90
9466;DHT22;4771;48.726;9.006;2022-07-09T05:06:37;12.40;99.90
9466;DHT22;4771;48.726;9.006;2022-07-09T05:09:04;12.50;99.90
9466;DHT22;4771;48.726;9.006;2022-07-09T05:11:31;12.60;99.90
9466;DHT22;4771;48.726;9.006;2022-07-09T05:13:59;12.70;99.90
9466;DHT22;4771;48.726;9.006;2022-07-09T05:16:26;12.80;99.90
9466;DHT22;4771;48.726;9.006;2022-07-09T05:18:53;12.90;99.90
9466;DHT22;4771;48.726;9.006;2022-07-09T05:21:22;12.90;99.90
9466;DHT22;4771;48.726;9.006;2022-07-09T05:23:49;12.90;99.90
9466;DHT22;4771;48.726;9.006;2022-07-09T05:26:16;13.00;99.90
9466;DHT22;4771;48.726;9.006;2022-07-09T05:28:43;13.10;99.90
9466;DHT22;4771;48.726;9.006;2022-07-09T05:31:11;13.20;99.90
9466;DHT22;4771;48.726;9.006;2022-07-09T05:33:38;13.30;99.90
9466;DHT22;4771;48.726;9.006;2022-07-09T05:36:05;13.40;99.90
9466;DHT22;4771;48.726;9.006;2022-07-09T05:38:34;13.50;99.90
9466;DHT22;4771;48.726;9.006;2022-07-09T05:41:01;13.60;99.90
9466;DHT22;4771;48.726;9.006;2022-07-09T05:43:28;13.60;99.90
9466;DHT22;4771;48.726;9.006;2022-07-09T05:45:55;13.70;99.90
9466;DHT22;4771;48.726;9.006;2022-07-09T05:48:22;13.80;99.90
9466;DHT22;4771;48.726;9.006;2022-07-09T05:50:49;13.90;99.90
9466;DHT22;4771;48.726;9.006;2022-07-09T05:53:16;13.90;99.90
9466;DHT22;4771;48.726;9.006;2022-07-09T05:55:44;14.00;99.90
9466;DHT22;4771;48.726;9.006;2022-07-09T05:58:12;14.10;99.90
9466;DHT22;4771;48.726;9.006;2022-07-09T06:00:39;14.10;99.90
9466;DHT22;4771;48.726;9.006;2022-07-09T06:03:06;14.20;99.90
9466;DHT22;4771;48.726;9.006;2022-07-09T06:05:33;14.30;99.90
9466;DHT22;4771;48.726;9.006;2022-07-09T06:08:00;14.40;99.90
9466;DHT22;4771;48.726;9.006;2022-07-09T06:10:27;14.60;99.90
9466;DHT22;4771;48.726;9.006;2022-07-09T06:12:55;14.70;99.90
9466;DHT22;4771;48.726;9.006;2022-07-09T06:15:22;14.80;99.90
9466;DHT22;4771;48.726;9.006;2022-07-09T06:17:49;15.00;99.90
9466;DHT22;4771;48.726;9.006;2022-07-09T06:20:16;15.10;99.90
9466;DHT22;4771;48.726;9.006;2022-07-09T06:22:43;15.20;99.90
9466;DHT22;4771;48.726;9.006;2022-07-09T06:25:10;15.30;99.90
9466;DHT22;4771;48.726;9.006;2022-07-09T06:27:37;15.40;99.90
9466;DHT22;4771;48.726;9.006;2022-07-09T06:30:08;15.50;99.90
9466;DHT22;4771;48.726;9.006;2022-07-09T06:32:35;15.60;99.90
9466;DHT22;4771;48.726;9.006;2022-07-09T06:35:03;15.70;99.90
9466;DHT22;4771;48.726;9.006;2022-07-09T06:37:30;15.80;99.90
9466;DHT22;4771;48.726;9.006;2022-07-09T06:39:57;15.90;99.90
9466;DHT22;4771;48.726;9.006;2022-07-09T06:42:25;15.90;99.90
9466;DHT22;4771;48.726;9.006;2022-07-09T06:44:52;16.00;99.90
9466;DHT22;4771;48.726;9.006;2022-07-09T06:47:20;16.10;99.90
9466;DHT22;4771;48.726;9.006;2022-07-09T06:49:47;16.20;99.90
9466;DHT22;4771;48.726;9.006;2022-07-09T06:52:14;16.30;99.90
9466;DHT22;4771;48.726;9.006;2022-07-09T06:54:41;16.40;99.90
9466;DHT22;4771;48.726;9.006;2022-07-09T06:57:08;16.50;99.90
9466;DHT22;4771;48.726;9.006;2022-07-09T06:59:36;16.60;99.90
9466;DHT22;4771;48.726;9.006;2022-07-09T07:02:03;16.70;99.90
9466;DHT22;4771;48.726;9.006;2022-07-09T07:04:32;16.80;99.90
9466;DHT22;4771;48.726;9.006;2022-07-09T07:06:59;16.90;99.90
9466;DHT22;4771;48.726;9.006;2022-07-09T07:09:26;17.10;99.90
9466;DHT22;4771;48.726;9.006;2022-07-09T07:11:54;17.20;99.90
9466;DHT22;4771;48.726;9.006;2022-07-09T07:14:21;17.20;99.90
9466;DHT22;4771;48.726;9.006;2022-07-09T07:16:48;17.20;99.90
9466;DHT22;4771;48.726;9.006;2022-07-09T07:19:16;17.30;99.90
9466;DHT22;4771;48.726;9.006;2022-07-09T07:21:47;17.20;99.90
9466;DHT22;4771;48.726;9.006;2022-07-09T07:24:14;17.20;99.90
9466;DHT22;4771;48.726;9.006;2022-07-09T07:26:41;17.10;99.90
9466;DHT22;4771;48.726;9.006;2022-07-09T07:29:08;17.20;99.90
9466;DHT22;4771;48.726;9.006;2022-07-09T07:31:35;17.10;99.90
9466;DHT22;4771;48.726;9.006;2022-07-09T07:34:02;17.10;99.90
9466;DHT22;4771;48.726;9.006;2022-07-09T07:36:29;17.20;99.90
9466;DHT22;4771;48.726;9.006;2022-07-09T07:38:57;17.20;99.90
9466;DHT22;4771;48.726;9.006;2022-07-09T07:41:24;17.30;99.90
9466;DHT22;4771;48.726;9.006;2022-07-09T07:43:51;17.30;99.90
9466;DHT22;4771;48.726;9.006;2022-07-09T07:46:18;17.40;99.90
9466;DHT22;4771;48.726;9.006;2022-07-09T07:48:45;17.50;99.90
9466;DHT22;4771;48.726;9.006;2022-07-09T07:51:12;17.50;99.90
9466;DHT22;4771;48.726;9.006;2022-07-09T07:53:39;17.60;99.90
9466;DHT22;4771;48.726;9.006;2022-07-09T07:56:08;17.70;99.90
9466;DHT22;4771;48.726;9.006;2022-07-09T07:58:35;17.90;99.90
9466;DHT22;4771;48.726;9.006;2022-07-09T08:01:03;18.00;99.90
9466;DHT22;4771;48.726;9.006;2022-07-09T08:03:30;18.10;99.90
9466;DHT22;4771;48.726;9.006;2022-07-09T08:05:57;18.30;99.90
9466;DHT22;4771;48.726;9.006;2022-07-09T08:08:24;18.50;99.90
9466;DHT22;4771;48.726;9.006;2022-07-09T08:10:51;18.70;99.90
9466;DHT22;4771;48.726;9.006;2022-07-09T08:13:19;18.90;99.90
9466;DHT22;4771;48.726;9.006;2022-07-09T08:15:46;19.00;99.90
9466;DHT22;4771;48.726;9.006;2022-07-09T08:18:13;19.20;99.90
9466;DHT22;4771;48.726;9.006;2022-07-09T08:20:41;19.30;99.90
9466;DHT22;4771;48.726;9.006;2022-07-09T08:23:10;19.40;99.90
9466;DHT22;4771;48.726;9.006;2022-07-09T08:25:37;19.50;99.90
9466;DHT22;4771;48.726;9.006;2022-07-09T08:28:05;19.60;99.90
9466;DHT22;4771;48.726;9.006;2022-07-09T08:30:33;19.70;99.90
9466;DHT22;4771;48.726;9.006;2022-07-09T08:33:00;19.70;99.90
9466;DHT22;4771;48.726;9.006;2022-07-09T08:35:27;19.80;99.90
9466;DHT22;4771;48.726;9.006;2022-07-09T08:37:54;19.90;99.90
9466;DHT22;4771;48.726;9.006;2022-07-09T08:40:22;20.00;99.90
9466;DHT22;4771;48.726;9.006;2022-07-09T08:42:50;20.10;99.90
9466;DHT22;4771;48.726;9.006;2022-07-09T08:45:17;20.30;99.90
9466;DHT22;4771;48.726;9.006;2022-07-09T08:47:46;20.50;99.90
9466;DHT22;4771;48.726;9.006;2022-07-09T08:50:14;20.50;99.90
9466;DHT22;4771;48.726;9.006;2022-07-09T08:52:41;20.60;99.90
9466;DHT22;4771;48.726;9.006;2022-07-09T08:55:09;20.80;99.90
9466;DHT22;4771;48.726;9.006;2022-07-09T08:57:36;21.00;99.90
9466;DHT22;4771;48.726;9.006;2022-07-09T09:00:05;21.00;99.90
9466;DHT22;4771;48.726;9.006;2022-07-09T09:02:34;21.20;99.90
9466;DHT22;4771;48.726;9.006;2022-07-09T09:05:08;21.30;99.90
9466;DHT22;4771;48.726;9.006;2022-07-09T09:07:36;21.40;99.90
9466;DHT22;4771;48.726;9.006;2022-07-09T09:10:04;21.50;99.90
9466;DHT22;4771;48.726;9.006;2022-07-09T09:12:31;21.50;99.40
9466;DHT22;4771;48.726;9.006;2022-07-09T09:14:58;21.40;96.80
9466;DHT22;4771;48.726;9.006;2022-07-09T09:17:25;21.10;97.00
9466;DHT22;4771;48.726;9.006;2022-07-09T09:19:53;21.00;97.50
9466;DHT22;4771;48.726;9.006;2022-07-09T09:22:21;21.10;97.50
9466;DHT22;4771;48.726;9.006;2022-07-09T09:24:51;21.10;97.80
9466;DHT22;4771;48.726;9.006;2022-07-09T09:27:27;21.20;98.00
9466;DHT22;4771;48.726;9.006;2022-07-09T09:29:58;21.40;98.60
9466;DHT22;4771;48.726;9.006;2022-07-09T09:32:26;21.70;97.30
9466;DHT22;4771;48.726;9.006;2022-07-09T09:34:53;21.90;97.20
9466;DHT22;4771;48.726;9.006;2022-07-09T09:37:28;22.10;97.00
9466;DHT22;4771;48.726;9.006;2022-07-09T09:39:56;22.30;97.90
9466;DHT22;4771;48.726;9.006;2022-07-09T09:42:24;22.40;94.90
9466;DHT22;4771;48.726;9.006;2022-07-09T09:44:52;22.60;95.60
9466;DHT22;4771;48.726;9.006;2022-07-09T09:47:23;22.80;95.90
9466;DHT22;4771;48.726;9.006;2022-07-09T09:49:50;22.90;92.30
9466;DHT22;4771;48.726;9.006;2022-07-09T09:52:19;22.80;90.60
9466;DHT22;4771;48.726;9.006;2022-07-09T09:54:48;22.90;91.90
9466;DHT22;4771;48.726;9.006;2022-07-09T09:57:17;23.10;92.90
9466;DHT22;4771;48.726;9.006;2022-07-09T09:59:45;23.40;91.40
9466;DHT22;4771;48.726;9.006;2022-07-09T10:02:13;23.50;84.90
9466;DHT22;4771;48.726;9.006;2022-07-09T10:04:42;23.70;82.30
9466;DHT22;4771;48.726;9.006;2022-07-09T10:07:10;23.80;80.50
9466;DHT22;4771;48.726;9.006;2022-07-09T10:09:37;23.90;79.50
9466;DHT22;4771;48.726;9.006;2022-07-09T10:12:07;24.00;79.10
9466;DHT22;4771;48.726;9.006;2022-07-09T10:14:37;24.00;79.80
9466;DHT22;4771;48.726;9.006;2022-07-09T10:17:12;23.80;79.40
9466;DHT22;4771;48.726;9.006;2022-07-09T10:19:51;23.40;74.70
9466;DHT22;4771;48.726;9.006;2022-07-09T10:22:18;23.00;72.50
9466;DHT22;4771;48.726;9.006;2022-07-09T10:24:45;22.80;79.60
9466;DHT22;4771;48.726;9.006;2022-07-09T10:27:14;22.70;79.40
9466;DHT22;4771;48.726;9.006;2022-07-09T10:29:53;22.90;75.60
9466;DHT22;4771;48.726;9.006;2022-07-09T10:32:27;23.20;72.30
9466;DHT22;4771;48.726;9.006;2022-07-09T10:34:56;23.50;70.20
9466;DHT22;4771;48.726;9.006;2022-07-09T10:37:33;23.80;69.60
9466;DHT22;4771;48.726;9.006;2022-07-09T10:40:11;24.10;74.30
9466;DHT22;4771;48.726;9.006;2022-07-09T10:42:41;24.40;72.00
9466;DHT22;4771;48.726;9.006;2022-07-09T10:45:22;24.80;74.30
9466;DHT22;4771;48.726;9.006;2022-07-09T10:47:53;25.30;69.40
9466;DHT22;4771;48.726;9.006;2022-07-09T10:50:21;25.40;70.20
9466;DHT22;4771;48.726;9.006;2022-07-09T10:52:48;25.60;67.90
9466;DHT22;4771;48.726;9.006;2022-07-09T10:55:17;25.60;63.00
9466;DHT22;4771;48.726;9.006;2022-07-09T10:57:46;25.60;66.20
9466;DHT22;4771;48.726;9.006;2022-07-09T11:00:14;25.60;65.80
9466;DHT22;4771;48.726;9.006;2022-07-09T11:02:56;25.50;68.20
9466;DHT22;4771;48.726;9.006;2022-07-09T11:05:24;25.30;67.60
9466;DHT22;4771;48.726;9.006;2022-07-09T11:07:56;25.20;70.30
9466;DHT22;4771;48.726;9.006;2022-07-09T11:10:23;25.20;71.10
9466;DHT22;4771;48.726;9.006;2022-07-09T11:12:53;25.40;71.20
9466;DHT22;4771;48.726;9.006;2022-07-09T11:15:20;25.80;67.40
9466;DHT22;4771;48.726;9.006;2022-07-09T11:17:54;26.10;67.70
9466;DHT22;4771;48.726;9.006;2022-07-09T11:20:21;26.00;65.10
9466;DHT22;4771;48.726;9.006;2022-07-09T11:22:49;26.00;62.60
9466;DHT22;4771;48.726;9.006;2022-07-09T11:25:17;25.80;63.40
9466;DHT22;4771;48.726;9.006;2022-07-09T11:27:44;25.70;65.50
9466;DHT22;4771;48.726;9.006;2022-07-09T11:30:15;25.50;64.30
9466;DHT22;4771;48.726;9.006;2022-07-09T11:32:43;25.30;66.10
9466;DHT22;4771;48.726;9.006;2022-07-09T11:35:10;25.10;67.50
9466;DHT22;4771;48.726;9.006;2022-07-09T11:37:38;24.90;65.60
9466;DHT22;4771;48.726;9.006;2022-07-09T11:40:15;24.80;65.30
9466;DHT22;4771;48.726;9.006;2022-07-09T11:42:43;24.70;67.80
9466;DHT22;4771;48.726;9.006;2022-07-09T11:45:10;24.70;68.60
9466;DHT22;4771;48.726;9.006;2022-07-09T11:47:40;24.70;69.70
9466;DHT22;4771;48.726;9.006;2022-07-09T11:50:09;24.70;68.70
9466;DHT22;4771;48.726;9.006;2022-07-09T11:52:36;24.70;68.00
9466;DHT22;4771;48.726;9.006;2022-07-09T11:55:05;25.00;68.90
9466;DHT22;4771;48.726;9.006;2022-07-09T11:57:34;25.30;67.50
9466;DHT22;4771;48.726;9.006;2022-07-09T12:00:03;25.50;64.90
9466;DHT22;4771;48.726;9.006;2022-07-09T12:02:32;25.80;63.40
9466;DHT22;4771;48.726;9.006;2022-07-09T12:05:02;26.10;61.80
9466;DHT22;4771;48.726;9.006;2022-07-09T12:07:30;26.40;61.70
9466;DHT22;4771;48.726;9.006;2022-07-09T12:09:58;26.60;58.40
9466;DHT22;4771;48.726;9.006;2022-07-09T12:12:26;26.80;59.40
9466;DHT22;4771;48.726;9.006;2022-07-09T12:14:53;27.00;58.20
9466;DHT22;4771;48.726;9.006;2022-07-09T12:17:23;27.10;58.00
9466;DHT22;4771;48.726;9.006;2022-07-09T12:19:50;27.30;59.50
9466;DHT22;4771;48.726;9.006;2022-07-09T12:22:19;27.60;57.00
9466;DHT22;4771;48.726;9.006;2022-07-09T12:24:46;27.90;55.90
9466;DHT22;4771;48.726;9.006;2022-07-09T12:27:13;28.10;55.00
9466;DHT22;4771;48.726;9.006;2022-07-09T12:29:40;27.90;53.50
9466;DHT22;4771;48.726;9.006;2022-07-09T12:32:07;27.70;53.20
9466;DHT22;4771;48.726;9.006;2022-07-09T12:34:34;27.50;56.00
9466;DHT22;4771;48.726;9.006;2022-07-09T12:37:01;27.30;52.90
9466;DHT22;4771;48.726;9.006;2022-07-09T12:39:30;27.30;54.70
9466;DHT22;4771;48.726;9.006;2022-07-09T12:41:57;27.50;53.80
9466;DHT22;4771;48.726;9.006;2022-07-09T12:44:25;27.50;53.40
9466;DHT22;4771;48.726;9.006;2022-07-09T12:46:52;27.40;52.90
9466;DHT22;4771;48.726;9.006;2022-07-09T12:49:19;27.30;53.70
9466;DHT22;4771;48.726;9.006;2022-07-09T12:51:46;27.40;53.20
9466;DHT22;4771;48.726;9.006;2022-07-09T12:54:13;27.60;52.50
9466;DHT22;4771;48.726;9.006;2022-07-09T12:56:41;27.70;50.90
9466;DHT22;4771;48.726;9.006;2022-07-09T12:59:09;27.70;50.30
9466;DHT22;4771;48.726;9.006;2022-07-09T13:01:35;27.90;50.20
9466;DHT22;4771;48.726;9.006;2022-07-09T13:04:02;28.00;49.70
9466;DHT22;4771;48.726;9.006;2022-07-09T13:06:29;27.80;50.10
9466;DHT22;4771;48.726;9.006;2022-07-09T13:09:00;27.60;48.30
9466;DHT22;4771;48.726;9.006;2022-07-09T13:11:27;27.70;47.80
9466;DHT22;4771;48.726;9.006;2022-07-09T13:13:56;27.90;49.50
9466;DHT22;4771;48.726;9.006;2022-07-09T13:16:23;28.40;47.90
9466;DHT22;4771;48.726;9.006;2022-07-09T13:18:50;28.50;46.30
9466;DHT22;4771;48.726;9.006;2022-07-09T13:21:18;28.80;46.40
9466;DHT22;4771;48.726;9.006;2022-07-09T13:23:46;28.90;45.70
9466;DHT22;4771;48.726;9.006;2022-07-09T13:26:13;29.30;46.00
9466;DHT22;4771;48.726;9.006;2022-07-09T13:28:41;29.60;44.70
9466;DHT22;4771;48.726;9.006;2022-07-09T13:31:09;29.70;45.30
9466;DHT22;4771;48.726;9.006;2022-07-09T13:33:36;29.50;42.60
9466;DHT22;4771;48.726;9.006;2022-07-09T13:36:05;29.20;43.80
9466;DHT22;4771;48.726;9.006;2022-07-09T13:38:32;28.80;42.50
9466;DHT22;4771;48.726;9.006;2022-07-09T13:40:59;28.50;42.90
9466;DHT22;4771;48.726;9.006;2022-07-09T13:43:27;28.20;42.90
9466;DHT22;4771;48.726;9.006;2022-07-09T13:45:55;28.10;44.30
9466;DHT22;4771;48.726;9.006;2022-07-09T13:48:24;27.80;43.50
9466;DHT22;4771;48.726;9.006;2022-07-09T13:50:52;27.70;44.00
9466;DHT22;4771;48.726;9.006;2022-07-09T13:53:19;27.70;45.10
9466;DHT22;4771;48.726;9.006;2022-07-09T13:55:46;27.60;45.70
9466;DHT22;4771;48.726;9.006;2022-07-09T13:58:13;27.50;42.80
9466;DHT22;4771;48.726;9.006;2022-07-09T14:00:40;27.50;44.60
9466;DHT22;4771;48.726;9.006;2022-07-09T14:03:07;27.40;46.00
9466;DHT22;4771;48.726;9.006;2022-07-09T14:05:37;27.30;47.00
9466;DHT22;4771;48.726;9.006;2022-07-09T14:08:04;27.50;45.10
9466;DHT22;4771;48.726;9.006;2022-07-09T14:10:32;27.80;44.60
9466;DHT22;4771;48.726;9.006;2022-07-09T14:12:59;28.10;45.00
9466;DHT22;4771;48.726;9.006;2022-07-09T14:15:26;28.50;44.00
9466;DHT22;4771;48.726;9.006;2022-07-09T14:17:53;28.40;44.80
9466;DHT22;4771;48.726;9.006;2022-07-09T14:20:20;28.00;42.90
9466;DHT22;4771;48.726;9.006;2022-07-09T14:22:49;27.80;43.00
9466;DHT22;4771;48.726;9.006;2022-07-09T14:25:16;27.60;44.10
9466;DHT22;4771;48.726;9.006;2022-07-09T14:27:43;27.50;45.30
9466;DHT22;4771;48.726;9.006;2022-07-09T14:30:10;27.40;45.60
9466;DHT22;4771;48.726;9.006;2022-07-09T14:32:37;27.20;44.80
9466;DHT22;4771;48.726;9.006;2022-07-09T14:35:05;27.70;45.30
9466;DHT22;4771;48.726;9.006;2022-07-09T14:37:32;28.80;44.50
9466;DHT22;4771;48.726;9.006;2022-07-09T14:40:00;30.30;43.00
9466;DHT22;4771;48.726;9.006;2022-07-09T14:42:27;32.70;38.90
9466;DHT22;4771;48.726;9.006;2022-07-09T14:44:54;35.10;36.90
9466;DHT22;4771;48.726;9.006;2022-07-09T14:47:21;35.20;33.80
9466;DHT22;4771;48.726;9.006;2022-07-09T14:49:48;34.10;33.90
9466;DHT22;4771;48.726;9.006;2022-07-09T14:52:15;33.30;35.00
9466;DHT22;4771;48.726;9.006;2022-07-09T14:54:42;32.80;35.20
9466;DHT22;4771;48.726;9.006;2022-07-09T14:57:10;32.80;34.50
9466;DHT22;4771;48.726;9.006;2022-07-09T14:59:37;33.50;33.70
9466;DHT22;4771;48.726;9.006;2022-07-09T15:02:04;35.90;33.40
9466;DHT22;4771;48.726;9.006;2022-07-09T15:04:31;37.40;29.80
9466;DHT22;4771;48.726;9.006;2022-07-09T15:06:58;36.40;27.60
9466;DHT22;4771;48.726;9.006;2022-07-09T15:09:25;35.30;27.10
9466;DHT22;4771;48.726;9.006;2022-07-09T15:11:53;33.50;27.20
9466;DHT22;4771;48.726;9.006;2022-07-09T15:14:22;32.30;30.70
9466;DHT22;4771;48.726;9.006;2022-07-09T15:16:49;32.80;30.60
9466;DHT22;4771;48.726;9.006;2022-07-09T15:19:16;33.60;29.40
9466;DHT22;4771;48.726;9.006;2022-07-09T15:21:43;33.00;31.10
9466;DHT22;4771;48.726;9.006;2022-07-09T15:24:10;31.70;30.80
9466;DHT22;4771;48.726;9.006;2022-07-09T15:26:37;30.90;31.80
9466;DHT22;4771;48.726;9.006;2022-07-09T15:29:04;29.70;33.20
9466;DHT22;4771;48.726;9.006;2022-07-09T15:31:33;29.00;34.90
9466;DHT22;4771;48.726;9.006;2022-07-09T15:34:00;28.40;36.00
9466;DHT22;4771;48.726;9.006;2022-07-09T15:36:30;27.70;38.50
9466;DHT22;4771;48.726;9.006;2022-07-09T15:38:57;27.20;38.70
9466;DHT22;4771;48.726;9.006;2022-07-09T15:41:24;27.00;39.70
9466;DHT22;4771;48.726;9.006;2022-07-09T15:43:52;26.70;40.00
9466;DHT22;4771;48.726;9.006;2022-07-09T15:46:19;26.60;41.40
9466;DHT22;4771;48.726;9.006;2022-07-09T15:48:47;26.50;41.60
9466;DHT22;4771;48.726;9.006;2022-07-09T15:51:14;26.40;42.60
9466;DHT22;4771;48.726;9.006;2022-07-09T15:53:41;26.80;42.70
9466;DHT22;4771;48.726;9.006;2022-07-09T15:56:08;27.30;42.00
9466;DHT22;4771;48.726;9.006;2022-07-09T15:58:35;27.60;41.60
9466;DHT22;4771;48.726;9.006;2022-07-09T16:01:02;28.50;40.60
9466;DHT22;4771;48.726;9.006;2022-07-09T16:03:29;28.40;39.90
9466;DHT22;4771;48.726;9.006;2022-07-09T16:05:57;28.00;39.30